createdAt,value
2018-04-14T00:00:52.136Z,8.55
2018-04-14T00:03:19.693Z,8.46
2018-04-14T00:05:47.219Z,8.41
2018-04-14T00:08:14.688Z,8.33
2018-04-14T00:10:42.179Z,8.26
2018-04-14T00:13:09.644Z,8.21
2018-04-14T00:15:37.239Z,8.14
2018-04-14T00:18:04.704Z,8.15
2018-04-14T00:20:32.171Z,8.16
2018-04-14T00:22:59.654Z,8.20
2018-04-14T00:25:27.132Z,8.20
2018-04-14T00:27:54.620Z,8.14
2018-04-14T00:30:22.079Z,8.11
2018-04-14T00:32:49.555Z,8.12
2018-04-14T00:35:17.014Z,8.12
2018-04-14T00:37:44.500Z,8.04
2018-04-14T00:40:11.984Z,8.02
2018-04-14T00:42:39.491Z,7.94
2018-04-14T00:45:06.950Z,7.85
2018-04-14T00:47:34.484Z,7.77
2018-04-14T00:50:01.938Z,7.66
2018-04-14T00:52:29.455Z,7.58
2018-04-14T00:54:56.937Z,7.60
2018-04-14T00:57:24.419Z,7.61
2018-04-14T00:59:51.880Z,7.50
2018-04-14T01:02:19.383Z,7.46
2018-04-14T01:04:47.791Z,7.46
2018-04-14T01:07:15.276Z,7.45
2018-04-14T01:09:42.756Z,7.44
2018-04-14T01:12:10.243Z,7.39
2018-04-14T01:14:37.743Z,7.43
2018-04-14T01:17:05.280Z,7.38
2018-04-14T01:19:32.707Z,7.36
2018-04-14T01:22:00.179Z,7.36
2018-04-14T01:24:27.668Z,7.30
2018-04-14T01:26:55.156Z,7.35
2018-04-14T01:29:22.643Z,7.38
2018-04-14T01:31:50.098Z,7.38
2018-04-14T01:34:17.619Z,7.38
2018-04-14T01:36:45.083Z,7.43
2018-04-14T01:39:13.540Z,7.35
2018-04-14T01:41:41.003Z,7.30
2018-04-14T01:44:08.488Z,7.23
2018-04-14T01:46:35.949Z,7.22
2018-04-14T01:49:03.436Z,7.17
2018-04-14T01:51:30.898Z,7.11
2018-04-14T01:53:58.383Z,7.05
2018-04-14T01:56:25.843Z,7.03
2018-04-14T01:58:53.328Z,7.06
2018-04-14T02:01:20.783Z,7.18
2018-04-14T02:03:48.331Z,7.18
2018-04-14T02:06:15.883Z,7.17
2018-04-14T02:08:43.465Z,7.07
2018-04-14T02:11:10.926Z,6.98
2018-04-14T02:13:38.421Z,7.01
2018-04-14T02:16:05.887Z,6.96
2018-04-14T02:18:33.382Z,6.91
2018-04-14T02:21:00.855Z,6.97
2018-04-14T02:23:28.428Z,7.09
2018-04-14T02:25:55.983Z,7.10
2018-04-14T02:28:23.522Z,7.06
2018-04-14T02:30:50.987Z,7.08
2018-04-14T02:33:18.487Z,7.02
2018-04-14T02:35:45.954Z,6.97
2018-04-14T02:38:13.432Z,6.93
2018-04-14T02:40:40.907Z,6.89
2018-04-14T02:43:08.371Z,6.86
2018-04-14T02:45:35.898Z,6.83
2018-04-14T02:48:03.368Z,6.85
2018-04-14T02:50:30.853Z,6.90
2018-04-14T02:52:58.319Z,6.92
2018-04-14T02:55:25.854Z,6.82
2018-04-14T02:57:53.315Z,6.72
2018-04-14T03:00:20.879Z,6.64
2018-04-14T03:02:48.341Z,6.55
2018-04-14T03:05:15.898Z,6.55
2018-04-14T03:07:43.368Z,6.48
2018-04-14T03:10:10.848Z,6.48
2018-04-14T03:12:38.310Z,6.45
2018-04-14T03:15:05.795Z,6.41
2018-04-14T03:17:33.261Z,6.40
2018-04-14T03:20:00.763Z,6.40
2018-04-14T03:22:28.232Z,6.56
2018-04-14T03:24:55.992Z,6.53
2018-04-14T03:27:23.528Z,6.57
2018-04-14T03:29:51.012Z,6.67
2018-04-14T03:32:18.556Z,6.66
2018-04-14T03:34:46.099Z,6.69
2018-04-14T03:37:13.555Z,6.68
2018-04-14T03:39:41.035Z,6.64
2018-04-14T03:42:08.503Z,6.68
2018-04-14T03:44:36.022Z,6.70
2018-04-14T03:47:03.483Z,6.68
2018-04-14T03:49:30.948Z,6.63
2018-04-14T03:51:58.440Z,6.69
2018-04-14T03:54:25.899Z,6.68
2018-04-14T03:56:53.407Z,6.63
2018-04-14T03:59:20.867Z,6.63
2018-04-14T04:01:48.356Z,6.68
2018-04-14T04:04:15.823Z,6.69
2018-04-14T04:06:43.303Z,6.70
2018-04-14T04:09:10.813Z,6.74
2018-04-14T04:11:38.471Z,6.76
2018-04-14T04:14:05.939Z,6.81
2018-04-14T04:16:33.429Z,6.91
2018-04-14T04:19:12.619Z,6.99
2018-04-14T04:21:51.993Z,7.04
2018-04-14T04:24:31.303Z,7.10
2018-04-14T04:26:58.788Z,7.13
2018-04-14T04:29:26.248Z,7.20
2018-04-14T04:31:53.740Z,7.28
2018-04-14T04:34:21.209Z,7.36
2018-04-14T04:36:48.703Z,7.45
2018-04-14T04:39:16.172Z,7.50
2018-04-14T04:41:43.694Z,7.58
2018-04-14T04:44:11.172Z,7.66
2018-04-14T04:46:38.740Z,7.69
2018-04-14T04:49:06.243Z,7.70
2018-04-14T04:51:33.758Z,7.79
2018-04-14T04:54:01.231Z,7.86
2018-04-14T04:56:28.727Z,7.88
2018-04-14T04:58:56.228Z,7.98
2018-04-14T05:01:23.778Z,8.02
2018-04-14T05:03:51.251Z,8.08
2018-04-14T05:06:18.780Z,8.08
2018-04-14T05:08:46.244Z,8.14
2018-04-14T05:11:13.736Z,8.15
2018-04-14T05:13:41.199Z,8.10
2018-04-14T05:16:08.690Z,8.05
2018-04-14T05:18:36.147Z,8.07
2018-04-14T05:21:03.623Z,8.13
2018-04-14T05:23:31.110Z,8.27
2018-04-14T05:25:58.571Z,8.40
2018-04-14T05:28:26.055Z,8.56
2018-04-14T05:30:53.548Z,8.66
2018-04-14T05:33:21.047Z,8.78
2018-04-14T05:35:48.547Z,8.95
2018-04-14T05:38:16.032Z,9.09
2018-04-14T05:40:43.495Z,9.19
2018-04-14T05:43:10.980Z,9.34
2018-04-14T05:45:38.434Z,9.42
2018-04-14T05:48:05.924Z,9.46
2018-04-14T05:50:33.427Z,9.42
2018-04-14T05:53:01.048Z,9.41
2018-04-14T05:55:28.519Z,9.52
2018-04-14T05:57:56.015Z,9.62
2018-04-14T06:00:23.491Z,9.67
2018-04-14T06:02:50.975Z,9.90
2018-04-14T06:05:18.495Z,10.02
2018-04-14T06:07:45.978Z,10.13
2018-04-14T06:10:13.444Z,10.18
2018-04-14T06:12:40.955Z,10.17
2018-04-14T06:15:08.516Z,10.27
2018-04-14T06:17:36.010Z,10.42
2018-04-14T06:20:03.478Z,10.64
2018-04-14T06:22:30.959Z,10.69
2018-04-14T06:24:58.447Z,10.84
2018-04-14T06:27:25.916Z,10.84
2018-04-14T06:29:53.422Z,11.02
2018-04-14T06:32:21.828Z,11.13
2018-04-14T06:34:49.331Z,11.28
2018-04-14T06:37:16.862Z,11.45
2018-04-14T06:39:44.424Z,11.54
2018-04-14T06:42:11.904Z,11.64
2018-04-14T06:44:39.423Z,11.78
2018-04-14T06:47:06.923Z,11.89
2018-04-14T06:49:34.455Z,12.19
2018-04-14T06:52:01.922Z,12.26
2018-04-14T06:54:29.428Z,12.40
2018-04-14T06:56:56.949Z,12.54
2018-04-14T06:59:24.451Z,12.66
2018-04-14T07:01:51.923Z,12.71
2018-04-14T07:04:19.490Z,12.77
2018-04-14T07:06:46.947Z,12.80
2018-04-14T07:09:14.448Z,12.82
2018-04-14T07:11:42.917Z,12.92
2018-04-14T07:14:10.500Z,13.00
2018-04-14T07:16:37.991Z,13.17
2018-04-14T07:19:05.510Z,13.38
2018-04-14T07:21:33.119Z,13.58
2018-04-14T07:24:00.606Z,13.56
2018-04-14T07:26:28.092Z,13.73
2018-04-14T07:28:55.591Z,13.72
2018-04-14T07:31:23.076Z,13.72
2018-04-14T07:33:50.638Z,13.96
2018-04-14T07:36:18.136Z,14.18
2018-04-14T07:38:45.619Z,14.30
2018-04-14T07:41:13.107Z,14.58
2018-04-14T07:43:40.579Z,14.45
2018-04-14T07:46:08.068Z,14.69
2018-04-14T07:48:35.588Z,14.87
2018-04-14T07:51:03.079Z,15.19
2018-04-14T07:53:30.563Z,15.31
2018-04-14T07:55:58.075Z,15.57
2018-04-14T07:58:25.547Z,15.68
2018-04-14T08:00:53.052Z,15.85
2018-04-14T08:03:20.531Z,16.07
2018-04-14T08:05:48.019Z,16.11
2018-04-14T08:08:15.492Z,16.19
2018-04-14T08:10:43.012Z,16.46
2018-04-14T08:13:10.587Z,16.54
2018-04-14T08:15:38.088Z,16.94
2018-04-14T08:18:05.562Z,17.04
2018-04-14T08:20:33.149Z,17.37
2018-04-14T08:23:00.663Z,17.57
2018-04-14T08:25:28.158Z,17.74
2018-04-14T08:27:55.623Z,17.70
2018-04-14T08:30:23.115Z,17.77
2018-04-14T08:32:50.587Z,17.77
2018-04-14T08:35:18.110Z,17.81
2018-04-14T08:37:45.596Z,18.07
2018-04-14T08:40:13.090Z,17.96
2018-04-14T08:42:40.575Z,18.16
2018-04-14T08:45:08.087Z,18.23
2018-04-14T08:47:35.572Z,18.48
2018-04-14T08:50:03.049Z,18.56
2018-04-14T08:52:30.563Z,18.89
2018-04-14T08:54:58.188Z,19.17
2018-04-14T08:57:25.728Z,19.23
2018-04-14T08:59:53.321Z,19.37
2018-04-14T09:02:20.820Z,19.58
2018-04-14T09:04:48.302Z,19.76
2018-04-14T09:07:15.795Z,19.59
2018-04-14T09:09:43.287Z,19.28
2018-04-14T09:12:10.847Z,19.31
2018-04-14T09:14:38.324Z,19.43
2018-04-14T09:17:05.811Z,19.67
2018-04-14T09:19:33.357Z,19.96
2018-04-14T09:22:00.847Z,20.04
2018-04-14T09:24:28.315Z,20.04
2018-04-14T09:26:55.998Z,20.10
2018-04-14T09:29:23.527Z,20.16
2018-04-14T09:31:51.046Z,20.46
2018-04-14T09:34:18.511Z,20.37
2018-04-14T09:36:46.004Z,20.67
2018-04-14T09:39:13.475Z,20.82
2018-04-14T09:41:40.971Z,21.19
2018-04-14T09:44:08.436Z,21.50
2018-04-14T09:46:35.932Z,21.98
2018-04-14T09:49:03.486Z,22.24
2018-04-14T09:51:30.987Z,22.46
2018-04-14T09:53:58.468Z,23.13
2018-04-14T09:56:25.994Z,23.94
2018-04-14T09:58:53.584Z,24.04
2018-04-14T10:01:26.768Z,23.85
2018-04-14T10:03:54.254Z,24.48
2018-04-14T10:06:21.726Z,24.86
2018-04-14T10:08:50.126Z,25.23
2018-04-14T10:11:17.663Z,25.72
2018-04-14T10:13:45.151Z,25.22
2018-04-14T10:16:12.675Z,25.31
2018-04-14T10:18:40.135Z,25.06
2018-04-14T10:21:07.613Z,25.73
2018-04-14T10:23:35.165Z,26.10
2018-04-14T10:26:02.635Z,26.80
2018-04-14T10:28:30.137Z,26.78
2018-04-14T10:30:58.628Z,27.47
2018-04-14T10:33:26.148Z,26.63
2018-04-14T10:35:53.652Z,26.31
2018-04-14T10:38:21.152Z,25.85
2018-04-14T10:40:48.620Z,26.00
2018-04-14T10:43:16.127Z,26.31
2018-04-14T10:45:43.599Z,26.88
2018-04-14T10:48:11.096Z,27.40
2018-04-14T10:50:38.624Z,27.52
2018-04-14T10:53:06.143Z,28.47
2018-04-14T10:55:33.614Z,28.46
2018-04-14T10:58:01.107Z,28.58
2018-04-14T11:00:28.583Z,28.41
2018-04-14T11:02:56.136Z,28.06
2018-04-14T11:05:23.634Z,28.40
2018-04-14T11:07:51.127Z,28.76
2018-04-14T11:10:18.595Z,29.33
2018-04-14T11:12:46.093Z,29.08
2018-04-14T11:15:13.598Z,28.54
2018-04-14T11:17:41.111Z,29.56
2018-04-14T11:20:08.591Z,29.58
2018-04-14T11:22:36.065Z,29.15
2018-04-14T11:25:03.555Z,30.08
2018-04-14T11:27:32.663Z,30.48
2018-04-14T11:30:00.183Z,31.01
2018-04-14T11:32:27.899Z,30.46
2018-04-14T11:34:55.395Z,29.59
2018-04-14T11:37:22.915Z,30.47
2018-04-14T11:39:50.471Z,30.63
2018-04-14T11:42:17.968Z,31.22
2018-04-14T11:44:45.467Z,29.71
2018-04-14T11:47:12.936Z,28.92
2018-04-14T11:49:40.462Z,28.67
2018-04-14T11:52:07.944Z,28.81
2018-04-14T11:54:35.430Z,28.50
2018-04-14T11:57:02.901Z,28.33
2018-04-14T11:59:30.394Z,28.54
2018-04-14T12:01:57.863Z,28.46
2018-04-14T12:04:25.358Z,30.59
2018-04-14T12:06:52.863Z,32.79
2018-04-14T12:11:49.575Z,34.86
2018-04-14T12:14:17.088Z,34.76
2018-04-14T12:16:44.574Z,32.09
2018-04-14T12:19:12.144Z,31.60
2018-04-14T12:21:39.739Z,32.28
2018-04-14T12:24:07.243Z,31.72
2018-04-14T12:26:35.153Z,30.82
2018-04-14T12:29:02.997Z,30.49
2018-04-14T12:31:30.509Z,30.41
2018-04-14T12:33:58.004Z,29.01
2018-04-14T12:36:26.441Z,28.55
2018-04-14T12:38:53.937Z,27.96
2018-04-14T12:41:21.432Z,29.08
2018-04-14T12:43:49.135Z,29.17
2018-04-14T12:46:16.636Z,28.81
2018-04-14T12:48:44.111Z,30.21
2018-04-14T12:51:11.631Z,30.25
2018-04-14T12:53:39.214Z,29.95
2018-04-14T12:56:06.705Z,30.10
2018-04-14T12:58:35.197Z,30.28
2018-04-14T13:01:02.719Z,29.63
2018-04-14T13:03:30.203Z,28.62
2018-04-14T13:05:57.705Z,28.37
2018-04-14T13:08:25.183Z,28.85
2018-04-14T13:10:52.805Z,28.99
2018-04-14T13:13:20.307Z,30.28
2018-04-14T13:15:47.866Z,30.11
2018-04-14T13:18:15.335Z,30.97
2018-04-14T13:20:42.851Z,31.36
2018-04-14T13:23:10.348Z,34.03
2018-04-14T13:25:39.707Z,34.95
2018-04-14T13:28:07.278Z,35.74
2018-04-14T13:30:34.786Z,36.59
2018-04-14T13:33:02.271Z,35.47
2018-04-14T13:35:29.815Z,34.36
2018-04-14T13:37:57.320Z,32.68
2018-04-14T13:40:24.811Z,33.93
2018-04-14T13:42:52.315Z,33.97
2018-04-14T13:45:19.809Z,31.99
2018-04-14T13:47:47.339Z,31.54
2018-04-14T13:50:14.818Z,31.18
2018-04-14T13:52:42.307Z,31.28
2018-04-14T13:55:09.781Z,29.09
2018-04-14T13:57:37.273Z,27.78
2018-04-14T14:00:04.766Z,26.29
2018-04-14T14:02:32.280Z,26.46
2018-04-14T14:04:59.819Z,26.03
2018-04-14T14:07:27.319Z,25.57
2018-04-14T14:09:54.824Z,24.98
2018-04-14T14:12:22.330Z,25.09
2018-04-14T14:14:49.820Z,24.78
2018-04-14T14:17:17.327Z,24.75
2018-04-14T14:19:44.807Z,24.76
2018-04-14T14:22:12.307Z,25.05
2018-04-14T14:24:39.789Z,25.16
2018-04-14T14:27:07.299Z,25.59
2018-04-14T14:29:34.794Z,25.60
2018-04-14T14:32:02.287Z,25.56
2018-04-14T14:34:29.764Z,24.87
2018-04-14T14:36:57.277Z,25.88
2018-04-14T14:39:24.747Z,26.53
2018-04-14T14:41:52.240Z,25.52
2018-04-14T14:44:19.728Z,26.09
2018-04-14T14:46:47.212Z,25.90
2018-04-14T14:49:14.712Z,25.29
2018-04-14T14:51:42.179Z,25.68
2018-04-14T14:54:09.675Z,25.19
2018-04-14T14:56:37.167Z,24.61
2018-04-14T14:59:04.710Z,24.59
2018-04-14T15:01:32.164Z,24.42
2018-04-14T15:03:59.832Z,24.68
2018-04-14T15:06:27.303Z,25.66
2018-04-14T15:08:54.800Z,25.72
2018-04-14T15:11:22.271Z,26.26
2018-04-14T15:13:49.762Z,26.74
2018-04-14T15:16:17.249Z,26.76
2018-04-14T15:18:44.777Z,27.74
2018-04-14T15:21:12.283Z,28.09
2018-04-14T15:23:39.783Z,28.29
2018-04-14T15:26:07.275Z,27.72
2018-04-14T15:28:34.803Z,29.08
2018-04-14T15:31:02.268Z,28.60
2018-04-14T15:33:29.759Z,27.05
2018-04-14T15:35:57.343Z,26.66
2018-04-14T15:38:24.904Z,26.77
2018-04-14T15:40:52.382Z,27.50
2018-04-14T15:43:19.917Z,26.85
2018-04-14T15:45:47.412Z,26.29
2018-04-14T15:48:14.969Z,26.31
2018-04-14T15:50:42.435Z,26.15
2018-04-14T15:53:09.944Z,27.69
2018-04-14T15:55:37.514Z,28.59
2018-04-14T15:58:05.017Z,29.67
2018-04-14T16:00:32.516Z,29.76
2018-04-14T16:02:59.992Z,29.66
2018-04-14T16:05:27.487Z,29.51
2018-04-14T16:07:55.043Z,28.91
2018-04-14T16:10:22.552Z,28.94
2018-04-14T16:12:50.126Z,28.63
2018-04-14T16:15:17.672Z,27.55
2018-04-14T16:17:45.146Z,27.66
2018-04-14T16:20:12.649Z,28.30
2018-04-14T16:22:40.115Z,29.12
2018-04-14T16:25:07.701Z,28.99
2018-04-14T16:27:35.198Z,29.09
2018-04-14T16:30:02.708Z,29.09
2018-04-14T16:32:30.174Z,29.25
2018-04-14T16:34:57.662Z,28.89
2018-04-14T16:37:25.170Z,30.66
2018-04-14T16:39:52.666Z,30.40
2018-04-14T16:42:20.158Z,30.85
2018-04-14T16:44:47.639Z,30.22
2018-04-14T16:47:15.319Z,29.45
2018-04-14T16:49:42.814Z,29.36
2018-04-14T16:52:10.312Z,28.26
2018-04-14T16:54:37.802Z,25.96
2018-04-14T16:57:05.305Z,25.05
2018-04-14T16:59:32.790Z,24.51
2018-04-14T17:02:00.383Z,23.47
2018-04-14T17:04:27.923Z,22.80
2018-04-14T17:06:55.410Z,22.78
2018-04-14T17:09:22.871Z,22.56
2018-04-14T17:11:50.391Z,22.33
2018-04-14T17:14:17.868Z,22.25
2018-04-14T17:16:45.379Z,21.88
2018-04-14T17:19:12.864Z,21.78
2018-04-14T17:21:40.374Z,21.59
2018-04-14T17:24:07.869Z,21.37
2018-04-14T17:26:35.367Z,21.31
2018-04-14T17:29:02.831Z,21.19
2018-04-14T17:31:30.344Z,20.91
2018-04-14T17:33:57.813Z,20.73
2018-04-14T17:36:25.300Z,20.59
2018-04-14T17:38:52.877Z,20.32
2018-04-14T17:41:20.406Z,20.00
2018-04-14T17:43:47.898Z,19.77
2018-04-14T17:46:15.381Z,19.52
2018-04-14T17:48:42.885Z,19.39
2018-04-14T17:51:10.384Z,19.26
2018-04-14T17:53:37.866Z,19.14
2018-04-14T17:56:05.358Z,19.03
2018-04-14T17:58:32.935Z,18.90
2018-04-14T18:01:00.447Z,18.76
2018-04-14T18:03:27.965Z,18.60
2018-04-14T18:05:55.482Z,18.48
2018-04-14T18:08:22.973Z,18.36
2018-04-14T18:10:50.440Z,18.29
2018-04-14T18:13:18.283Z,18.24
2018-04-14T18:15:45.824Z,18.17
2018-04-14T18:18:13.331Z,18.08
2018-04-14T18:20:40.869Z,17.98
2018-04-14T18:23:08.415Z,17.92
2018-04-14T18:25:35.895Z,17.88
2018-04-14T18:28:03.461Z,17.81
2018-04-14T18:30:30.956Z,17.77
2018-04-14T18:32:58.452Z,17.72
2018-04-14T18:35:25.932Z,17.70
2018-04-14T18:37:53.576Z,17.65
2018-04-14T18:40:21.023Z,17.56
2018-04-14T18:42:48.536Z,17.55
2018-04-14T18:45:16.000Z,17.43
2018-04-14T18:47:43.531Z,17.30
2018-04-14T18:50:11.063Z,17.22
2018-04-14T18:52:38.511Z,17.11
2018-04-14T18:55:05.983Z,17.03
2018-04-14T18:57:33.551Z,16.96
2018-04-14T19:00:01.021Z,16.88
2018-04-14T19:02:28.761Z,16.89
2018-04-14T19:04:56.332Z,16.83
2018-04-14T19:07:23.890Z,16.83
2018-04-14T19:09:51.468Z,16.85
2018-04-14T19:12:19.067Z,16.81
2018-04-14T19:14:46.547Z,16.80
2018-04-14T19:17:14.088Z,16.75
2018-04-14T19:19:41.567Z,16.71
2018-04-14T19:22:09.035Z,16.61
2018-04-14T19:24:36.620Z,16.58
2018-04-14T19:27:04.062Z,16.44
2018-04-14T19:29:31.640Z,16.29
2018-04-14T19:31:59.151Z,16.23
2018-04-14T19:34:26.638Z,16.28
2018-04-14T19:36:54.103Z,16.32
2018-04-14T19:39:21.636Z,16.38
2018-04-14T19:41:49.107Z,16.39
2018-04-14T19:44:16.596Z,16.33
2018-04-14T19:46:44.082Z,16.28
2018-04-14T19:49:11.586Z,16.11
2018-04-14T19:51:39.048Z,15.95
2018-04-14T19:54:06.575Z,15.82
2018-04-14T19:56:34.055Z,15.73
2018-04-14T19:59:01.556Z,15.63
2018-04-14T20:01:29.043Z,15.56
2018-04-14T20:03:56.540Z,15.48
2018-04-14T20:06:24.016Z,15.51
2018-04-14T20:08:51.515Z,15.55
2018-04-14T20:11:18.988Z,15.60
2018-04-14T20:13:46.494Z,15.61
2018-04-14T20:16:14.019Z,15.61
2018-04-14T20:18:41.521Z,15.60
2018-04-14T20:21:09.012Z,15.62
2018-04-14T20:23:36.523Z,15.61
2018-04-14T20:26:04.026Z,15.64
2018-04-14T20:28:31.781Z,15.66
2018-04-14T20:30:59.250Z,15.72
2018-04-14T20:33:26.712Z,15.68
2018-04-14T20:35:54.237Z,15.63
2018-04-14T20:38:21.715Z,15.61
2018-04-14T20:40:49.235Z,15.59
2018-04-14T20:43:16.699Z,15.52
2018-04-14T20:45:44.359Z,15.45
2018-04-14T20:48:11.832Z,15.40
2018-04-14T20:50:39.459Z,15.34
2018-04-14T20:53:06.936Z,15.26
2018-04-14T20:55:34.424Z,15.23
2018-04-14T20:58:01.907Z,15.26
2018-04-14T21:00:29.431Z,15.22
2018-04-14T21:02:56.916Z,15.20
2018-04-14T21:05:24.412Z,15.21
2018-04-14T21:07:51.959Z,15.20
2018-04-14T21:10:19.475Z,15.20
2018-04-14T21:12:46.943Z,15.21
2018-04-14T21:15:14.536Z,15.21
2018-04-14T21:17:42.006Z,15.18
2018-04-14T21:20:09.581Z,15.18
2018-04-14T21:22:37.060Z,15.15
2018-04-14T21:25:04.567Z,15.15
2018-04-14T21:27:32.037Z,15.13
2018-04-14T21:29:59.583Z,15.11
2018-04-14T21:32:27.127Z,15.10
2018-04-14T21:34:54.655Z,15.16
2018-04-14T21:37:22.143Z,15.14
2018-04-14T21:39:49.647Z,15.07
2018-04-14T21:42:17.116Z,15.03
2018-04-14T21:44:44.624Z,15.01
2018-04-14T21:47:12.104Z,14.98
2018-04-14T21:49:39.657Z,14.99
2018-04-14T21:52:07.159Z,15.17
2018-04-14T21:54:34.644Z,15.25
2018-04-14T21:57:02.140Z,15.29
2018-04-14T21:59:29.637Z,15.30
2018-04-14T22:01:57.155Z,15.31
2018-04-14T22:04:24.634Z,15.33
2018-04-14T22:06:52.123Z,15.26
2018-04-14T22:09:19.697Z,15.21
2018-04-14T22:11:47.187Z,15.19
2018-04-14T22:14:26.506Z,15.12
2018-04-14T22:16:54.023Z,15.06
2018-04-14T22:19:21.527Z,14.99
2018-04-14T22:21:49.036Z,15.02
2018-04-14T22:24:16.515Z,14.97
2018-04-14T22:26:44.059Z,14.94
2018-04-14T22:29:11.524Z,14.87
2018-04-14T22:31:39.016Z,14.81
2018-04-14T22:34:06.488Z,14.76
2018-04-14T22:36:33.978Z,14.60
2018-04-14T22:39:01.663Z,14.52
2018-04-14T22:41:29.160Z,14.43
2018-04-14T22:43:56.646Z,14.40
2018-04-14T22:46:24.148Z,14.39
2018-04-14T22:48:51.611Z,14.40
2018-04-14T22:51:19.110Z,14.39
2018-04-14T22:53:46.574Z,14.39
2018-04-14T22:56:14.070Z,14.34
2018-04-14T22:58:41.578Z,14.29
2018-04-14T23:01:09.076Z,14.23
2018-04-14T23:03:36.551Z,14.25
2018-04-14T23:06:04.092Z,14.19
2018-04-14T23:08:31.655Z,14.13
2018-04-14T23:10:59.216Z,14.13
2018-04-14T23:13:26.718Z,14.05
2018-04-14T23:15:54.207Z,13.94
2018-04-14T23:18:21.704Z,13.82
2018-04-14T23:20:50.144Z,13.82
2018-04-14T23:23:17.635Z,13.73
2018-04-14T23:25:45.215Z,13.84
2018-04-14T23:28:12.700Z,13.88
2018-04-14T23:30:40.191Z,13.83
2018-04-14T23:33:07.686Z,13.84
2018-04-14T23:35:35.157Z,13.76
2018-04-14T23:38:02.659Z,13.68
2018-04-14T23:40:30.131Z,13.72
2018-04-14T23:42:57.644Z,13.64
2018-04-14T23:45:25.123Z,13.53
2018-04-14T23:47:52.631Z,13.54
2018-04-14T23:50:20.099Z,13.59
2018-04-14T23:52:47.583Z,13.61
2018-04-14T23:55:15.051Z,13.56
2018-04-14T23:57:42.535Z,13.47
